sensor_id;sensor_type;location;lat;lon;timestamp;P1;durP1;ratioP1;P2;durP2;ratioP2
80227;SDS011;69539;42.138;24.742;2024-02-14T00:01:23;1.33;;;1.15;;
80227;SDS011;69539;42.138;24.742;2024-02-14T00:03:49;1.30;;;1.20;;
80227;SDS011;69539;42.138;24.742;2024-02-14T00:06:14;1.05;;;1.05;;
80227;SDS011;69539;42.138;24.742;2024-02-14T00:08:40;1.25;;;1.15;;
80227;SDS011;69539;42.138;24.742;2024-02-14T00:11:06;2.50;;;1.30;;
80227;SDS011;69539;42.138;24.742;2024-02-14T00:13:31;1.30;;;1.20;;
80227;SDS011;69539;42.138;24.742;2024-02-14T00:15:59;1.40;;;1.30;;
80227;SDS011;69539;42.138;24.742;2024-02-14T00:18:26;1.42;;;1.33;;
80227;SDS011;69539;42.138;24.742;2024-02-14T00:20:51;2.15;;;1.30;;
80227;SDS011;69539;42.138;24.742;2024-02-14T00:23:17;1.35;;;1.25;;
80227;SDS011;69539;42.138;24.742;2024-02-14T00:25:42;1.20;;;1.10;;
80227;SDS011;69539;42.138;24.742;2024-02-14T00:28:08;1.35;;;1.27;;
80227;SDS011;69539;42.138;24.742;2024-02-14T00:30:34;0.90;;;0.90;;
80227;SDS011;69539;42.138;24.742;2024-02-14T00:32:59;1.30;;;1.20;;
80227;SDS011;69539;42.138;24.742;2024-02-14T00:35:25;1.33;;;1.23;;
80227;SDS011;69539;42.138;24.742;2024-02-14T00:37:51;1.30;;;1.20;;
80227;SDS011;69539;42.138;24.742;2024-02-14T00:40:17;1.20;;;1.10;;
80227;SDS011;69539;42.138;24.742;2024-02-14T00:42:43;1.05;;;1.05;;
80227;SDS011;69539;42.138;24.742;2024-02-14T00:45:08;1.10;;;1.00;;
80227;SDS011;69539;42.138;24.742;2024-02-14T00:47:34;1.48;;;1.23;;
80227;SDS011;69539;42.138;24.742;2024-02-14T00:50:01;1.30;;;1.20;;
80227;SDS011;69539;42.138;24.742;2024-02-14T00:52:27;1.60;;;1.15;;
80227;SDS011;69539;42.138;24.742;2024-02-14T00:54:55;1.33;;;1.23;;
80227;SDS011;69539;42.138;24.742;2024-02-14T00:57:21;1.10;;;1.00;;
80227;SDS011;69539;42.138;24.742;2024-02-14T00:59:51;1.27;;;1.17;;
80227;SDS011;69539;42.138;24.742;2024-02-14T01:02:17;2.22;;;1.40;;
80227;SDS011;69539;42.138;24.742;2024-02-14T01:04:43;1.20;;;1.10;;
80227;SDS011;69539;42.138;24.742;2024-02-14T01:07:09;1.00;;;1.00;;
80227;SDS011;69539;42.138;24.742;2024-02-14T01:09:35;1.30;;;1.20;;
80227;SDS011;69539;42.138;24.742;2024-02-14T01:12:01;1.35;;;1.05;;
80227;SDS011;69539;42.138;24.742;2024-02-14T01:14:27;1.00;;;1.00;;
80227;SDS011;69539;42.138;24.742;2024-02-14T01:16:53;1.42;;;1.33;;
80227;SDS011;69539;42.138;24.742;2024-02-14T01:19:19;1.40;;;1.30;;
80227;SDS011;69539;42.138;24.742;2024-02-14T01:21:45;1.08;;;0.98;;
80227;SDS011;69539;42.138;24.742;2024-02-14T01:24:14;1.20;;;1.10;;
80227;SDS011;69539;42.138;24.742;2024-02-14T01:26:40;1.30;;;1.20;;
80227;SDS011;69539;42.138;24.742;2024-02-14T01:29:06;1.17;;;1.08;;
80227;SDS011;69539;42.138;24.742;2024-02-14T01:31:32;1.67;;;0.98;;
80227;SDS011;69539;42.138;24.742;2024-02-14T01:33:59;1.35;;;1.23;;
80227;SDS011;69539;42.138;24.742;2024-02-14T01:36:26;1.17;;;1.08;;
80227;SDS011;69539;42.138;24.742;2024-02-14T01:38:53;0.90;;;0.90;;
80227;SDS011;69539;42.138;24.742;2024-02-14T01:41:19;1.80;;;1.10;;
80227;SDS011;69539;42.138;24.742;2024-02-14T01:43:46;0.90;;;0.90;;
80227;SDS011;69539;42.138;24.742;2024-02-14T01:46:12;1.27;;;1.15;;
80227;SDS011;69539;42.138;24.742;2024-02-14T01:48:39;1.17;;;1.15;;
80227;SDS011;69539;42.138;24.742;2024-02-14T01:51:07;1.55;;;1.15;;
80227;SDS011;69539;42.138;24.742;2024-02-14T01:53:36;1.95;;;1.05;;
80227;SDS011;69539;42.138;24.742;2024-02-14T01:56:03;1.42;;;1.23;;
80227;SDS011;69539;42.138;24.742;2024-02-14T01:58:30;1.57;;;1.47;;
80227;SDS011;69539;42.138;24.742;2024-02-14T02:00:57;1.27;;;1.10;;
80227;SDS011;69539;42.138;24.742;2024-02-14T02:03:26;1.10;;;1.02;;
80227;SDS011;69539;42.138;24.742;2024-02-14T02:05:52;1.50;;;1.40;;
80227;SDS011;69539;42.138;24.742;2024-02-14T02:08:19;1.92;;;1.45;;
80227;SDS011;69539;42.138;24.742;2024-02-14T02:10:45;1.55;;;1.17;;
80227;SDS011;69539;42.138;24.742;2024-02-14T02:13:10;1.00;;;1.00;;
80227;SDS011;69539;42.138;24.742;2024-02-14T02:15:36;1.30;;;1.20;;
80227;SDS011;69539;42.138;24.742;2024-02-14T02:18:03;1.48;;;1.38;;
80227;SDS011;69539;42.138;24.742;2024-02-14T02:20:31;1.77;;;1.40;;
80227;SDS011;69539;42.138;24.742;2024-02-14T02:22:57;1.70;;;1.60;;
80227;SDS011;69539;42.138;24.742;2024-02-14T02:25:23;3.30;;;1.52;;
80227;SDS011;69539;42.138;24.742;2024-02-14T02:27:51;1.40;;;1.30;;
80227;SDS011;69539;42.138;24.742;2024-02-14T02:30:17;1.30;;;1.20;;
80227;SDS011;69539;42.138;24.742;2024-02-14T02:32:43;2.00;;;1.70;;
80227;SDS011;69539;42.138;24.742;2024-02-14T02:35:09;2.17;;;1.77;;
80227;SDS011;69539;42.138;24.742;2024-02-14T02:37:37;1.77;;;1.67;;
80227;SDS011;69539;42.138;24.742;2024-02-14T02:40:03;1.55;;;1.30;;
80227;SDS011;69539;42.138;24.742;2024-02-14T02:42:29;1.63;;;1.45;;
80227;SDS011;69539;42.138;24.742;2024-02-14T02:44:55;1.83;;;1.73;;
80227;SDS011;69539;42.138;24.742;2024-02-14T02:47:21;1.63;;;1.52;;
80227;SDS011;69539;42.138;24.742;2024-02-14T02:49:46;1.83;;;1.73;;
80227;SDS011;69539;42.138;24.742;2024-02-14T02:52:12;2.35;;;1.35;;
80227;SDS011;69539;42.138;24.742;2024-02-14T02:54:38;1.92;;;1.83;;
80227;SDS011;69539;42.138;24.742;2024-02-14T02:57:11;1.65;;;1.50;;
80227;SDS011;69539;42.138;24.742;2024-02-14T03:02:04;2.17;;;1.98;;
80227;SDS011;69539;42.138;24.742;2024-02-14T03:04:33;1.92;;;1.83;;
80227;SDS011;69539;42.138;24.742;2024-02-14T03:06:59;1.95;;;1.85;;
80227;SDS011;69539;42.138;24.742;2024-02-14T03:09:24;2.45;;;2.03;;
80227;SDS011;69539;42.138;24.742;2024-02-14T03:11:51;2.35;;;2.10;;
80227;SDS011;69539;42.138;24.742;2024-02-14T03:14:17;2.20;;;2.00;;
80227;SDS011;69539;42.138;24.742;2024-02-14T03:16:42;2.25;;;2.05;;
80227;SDS011;69539;42.138;24.742;2024-02-14T03:19:08;2.50;;;2.28;;
80227;SDS011;69539;42.138;24.742;2024-02-14T03:21:34;2.33;;;2.13;;
80227;SDS011;69539;42.138;24.742;2024-02-14T03:24:01;2.38;;;2.17;;
80227;SDS011;69539;42.138;24.742;2024-02-14T03:26:30;2.60;;;2.40;;
80227;SDS011;69539;42.138;24.742;2024-02-14T03:28:58;2.67;;;2.47;;
80227;SDS011;69539;42.138;24.742;2024-02-14T03:31:30;2.53;;;2.30;;
80227;SDS011;69539;42.138;24.742;2024-02-14T03:33:55;2.60;;;2.30;;
80227;SDS011;69539;42.138;24.742;2024-02-14T03:36:21;2.88;;;2.65;;
80227;SDS011;69539;42.138;24.742;2024-02-14T03:38:49;2.63;;;2.43;;
80227;SDS011;69539;42.138;24.742;2024-02-14T03:41:15;2.65;;;2.45;;
80227;SDS011;69539;42.138;24.742;2024-02-14T03:43:40;4.90;;;3.10;;
80227;SDS011;69539;42.138;24.742;2024-02-14T03:46:06;4.53;;;2.55;;
80227;SDS011;69539;42.138;24.742;2024-02-14T03:48:32;4.18;;;2.78;;
80227;SDS011;69539;42.138;24.742;2024-02-14T03:50:57;3.42;;;2.95;;
80227;SDS011;69539;42.138;24.742;2024-02-14T03:53:23;3.58;;;2.60;;
80227;SDS011;69539;42.138;24.742;2024-02-14T03:55:49;327.08;;;259.13;;
80227;SDS011;69539;42.138;24.742;2024-02-14T03:58:15;478.92;;;372.17;;
80227;SDS011;69539;42.138;24.742;2024-02-14T04:00:47;476.83;;;355.77;;
80227;SDS011;69539;42.138;24.742;2024-02-14T04:03:15;440.98;;;318.88;;
80227;SDS011;69539;42.138;24.742;2024-02-14T04:05:41;297.30;;;212.27;;
80227;SDS011;69539;42.138;24.742;2024-02-14T04:08:07;187.45;;;121.90;;
80227;SDS011;69539;42.138;24.742;2024-02-14T04:10:38;118.63;;;84.50;;
80227;SDS011;69539;42.138;24.742;2024-02-14T04:13:04;90.80;;;65.85;;
80227;SDS011;69539;42.138;24.742;2024-02-14T04:15:30;91.20;;;66.38;;
80227;SDS011;69539;42.138;24.742;2024-02-14T04:17:56;110.78;;;84.43;;
80227;SDS011;69539;42.138;24.742;2024-02-14T04:20:23;66.38;;;47.42;;
80227;SDS011;69539;42.138;24.742;2024-02-14T04:22:48;56.08;;;43.30;;
80227;SDS011;69539;42.138;24.742;2024-02-14T04:25:14;159.77;;;103.28;;
80227;SDS011;69539;42.138;24.742;2024-02-14T04:27:40;223.32;;;146.77;;
80227;SDS011;69539;42.138;24.742;2024-02-14T04:30:06;185.57;;;119.95;;
80227;SDS011;69539;42.138;24.742;2024-02-14T04:32:32;112.68;;;75.10;;
80227;SDS011;69539;42.138;24.742;2024-02-14T04:34:58;163.38;;;108.10;;
80227;SDS011;69539;42.138;24.742;2024-02-14T04:37:24;73.65;;;50.90;;
80227;SDS011;69539;42.138;24.742;2024-02-14T04:39:50;76.43;;;53.30;;
80227;SDS011;69539;42.138;24.742;2024-02-14T04:42:15;60.15;;;42.90;;
80227;SDS011;69539;42.138;24.742;2024-02-14T04:44:41;63.08;;;43.53;;
80227;SDS011;69539;42.138;24.742;2024-02-14T04:47:07;48.00;;;36.55;;
80227;SDS011;69539;42.138;24.742;2024-02-14T04:49:34;44.70;;;31.77;;
80227;SDS011;69539;42.138;24.742;2024-02-14T04:52:00;24.58;;;17.05;;
80227;SDS011;69539;42.138;24.742;2024-02-14T04:54:26;22.40;;;16.75;;
80227;SDS011;69539;42.138;24.742;2024-02-14T04:56:53;20.92;;;15.73;;
80227;SDS011;69539;42.138;24.742;2024-02-14T04:59:19;20.88;;;15.93;;
80227;SDS011;69539;42.138;24.742;2024-02-14T05:01:44;17.95;;;12.50;;
80227;SDS011;69539;42.138;24.742;2024-02-14T05:04:11;12.45;;;9.48;;
80227;SDS011;69539;42.138;24.742;2024-02-14T05:06:37;10.93;;;8.05;;
80227;SDS011;69539;42.138;24.742;2024-02-14T05:09:03;10.77;;;8.30;;
80227;SDS011;69539;42.138;24.742;2024-02-14T05:11:30;8.82;;;6.68;;
80227;SDS011;69539;42.138;24.742;2024-02-14T05:13:55;7.55;;;5.68;;
80227;SDS011;69539;42.138;24.742;2024-02-14T05:16:21;9.25;;;6.93;;
80227;SDS011;69539;42.138;24.742;2024-02-14T05:18:48;7.93;;;5.82;;
80227;SDS011;69539;42.138;24.742;2024-02-14T05:21:14;9.90;;;7.07;;
80227;SDS011;69539;42.138;24.742;2024-02-14T05:23:40;6.50;;;5.10;;
80227;SDS011;69539;42.138;24.742;2024-02-14T05:26:05;7.10;;;5.35;;
80227;SDS011;69539;42.138;24.742;2024-02-14T05:28:31;5.97;;;4.13;;
80227;SDS011;69539;42.138;24.742;2024-02-14T05:30:58;6.50;;;5.07;;
80227;SDS011;69539;42.138;24.742;2024-02-14T05:33:24;120.78;;;82.72;;
80227;SDS011;69539;42.138;24.742;2024-02-14T05:35:51;475.58;;;335.05;;
80227;SDS011;69539;42.138;24.742;2024-02-14T05:38:17;618.42;;;459.80;;
80227;SDS011;69539;42.138;24.742;2024-02-14T05:40:47;550.88;;;395.63;;
80227;SDS011;69539;42.138;24.742;2024-02-14T05:43:13;406.83;;;281.70;;
80227;SDS011;69539;42.138;24.742;2024-02-14T05:45:39;384.48;;;255.50;;
80227;SDS011;69539;42.138;24.742;2024-02-14T05:48:06;417.98;;;287.23;;
80227;SDS011;69539;42.138;24.742;2024-02-14T05:50:32;348.58;;;230.73;;
80227;SDS011;69539;42.138;24.742;2024-02-14T05:52:58;253.48;;;163.38;;
80227;SDS011;69539;42.138;24.742;2024-02-14T05:55:24;212.35;;;140.02;;
80227;SDS011;69539;42.138;24.742;2024-02-14T05:57:50;187.32;;;123.15;;
80227;SDS011;69539;42.138;24.742;2024-02-14T06:00:19;132.18;;;90.13;;
80227;SDS011;69539;42.138;24.742;2024-02-14T06:02:46;539.55;;;419.70;;
80227;SDS011;69539;42.138;24.742;2024-02-14T06:05:15;919.17;;;701.85;;
80227;SDS011;69539;42.138;24.742;2024-02-14T06:07:41;532.70;;;392.83;;
80227;SDS011;69539;42.138;24.742;2024-02-14T06:10:07;630.08;;;490.92;;
80227;SDS011;69539;42.138;24.742;2024-02-14T06:12:34;454.73;;;310.92;;
80227;SDS011;69539;42.138;24.742;2024-02-14T06:15:00;596.67;;;453.60;;
80227;SDS011;69539;42.138;24.742;2024-02-14T06:17:26;480.90;;;342.00;;
80227;SDS011;69539;42.138;24.742;2024-02-14T06:19:52;670.80;;;531.95;;
80227;SDS011;69539;42.138;24.742;2024-02-14T06:22:18;717.25;;;552.25;;
80227;SDS011;69539;42.138;24.742;2024-02-14T06:24:44;890.13;;;679.08;;
80227;SDS011;69539;42.138;24.742;2024-02-14T06:27:09;667.95;;;506.52;;
80227;SDS011;69539;42.138;24.742;2024-02-14T06:29:36;512.08;;;372.58;;
80227;SDS011;69539;42.138;24.742;2024-02-14T06:32:01;630.08;;;496.48;;
80227;SDS011;69539;42.138;24.742;2024-02-14T06:34:27;549.33;;;408.50;;
80227;SDS011;69539;42.138;24.742;2024-02-14T06:36:53;462.88;;;334.73;;
80227;SDS011;69539;42.138;24.742;2024-02-14T06:39:19;289.95;;;197.30;;
80227;SDS011;69539;42.138;24.742;2024-02-14T06:41:48;388.20;;;267.25;;
80227;SDS011;69539;42.138;24.742;2024-02-14T06:44:13;331.80;;;223.13;;
80227;SDS011;69539;42.138;24.742;2024-02-14T06:46:39;315.65;;;207.82;;
80227;SDS011;69539;42.138;24.742;2024-02-14T06:49:06;238.90;;;160.23;;
80227;SDS011;69539;42.138;24.742;2024-02-14T06:51:32;308.33;;;222.82;;
80227;SDS011;69539;42.138;24.742;2024-02-14T06:53:58;642.35;;;528.20;;
80227;SDS011;69539;42.138;24.742;2024-02-14T06:56:24;617.25;;;506.45;;
80227;SDS011;69539;42.138;24.742;2024-02-14T06:58:49;545.53;;;417.98;;
80227;SDS011;69539;42.138;24.742;2024-02-14T07:06:50;419.27;;;288.80;;
80227;SDS011;69539;42.138;24.742;2024-02-14T07:09:17;454.48;;;333.33;;
80227;SDS011;69539;42.138;24.742;2024-02-14T07:11:43;389.95;;;276.83;;
80227;SDS011;69539;42.138;24.742;2024-02-14T07:14:11;375.30;;;265.88;;
80227;SDS011;69539;42.138;24.742;2024-02-14T07:16:36;197.57;;;133.38;;
80227;SDS011;69539;42.138;24.742;2024-02-14T07:19:02;266.25;;;184.77;;
80227;SDS011;69539;42.138;24.742;2024-02-14T07:21:28;362.50;;;261.10;;
80227;SDS011;69539;42.138;24.742;2024-02-14T07:23:53;438.05;;;331.92;;
80227;SDS011;69539;42.138;24.742;2024-02-14T07:26:19;510.02;;;398.15;;
80227;SDS011;69539;42.138;24.742;2024-02-14T07:28:45;355.55;;;254.90;;
80227;SDS011;69539;42.138;24.742;2024-02-14T07:31:11;296.98;;;216.40;;
80227;SDS011;69539;42.138;24.742;2024-02-14T07:33:37;287.50;;;202.38;;
80227;SDS011;69539;42.138;24.742;2024-02-14T07:36:03;258.25;;;190.15;;
80227;SDS011;69539;42.138;24.742;2024-02-14T07:38:28;220.48;;;156.82;;
80227;SDS011;69539;42.138;24.742;2024-02-14T07:40:54;155.68;;;112.93;;
80227;SDS011;69539;42.138;24.742;2024-02-14T07:43:20;65.18;;;51.58;;
80227;SDS011;69539;42.138;24.742;2024-02-14T07:45:46;163.65;;;119.30;;
80227;SDS011;69539;42.138;24.742;2024-02-14T07:48:13;128.57;;;95.30;;
80227;SDS011;69539;42.138;24.742;2024-02-14T07:50:38;133.88;;;99.10;;
80227;SDS011;69539;42.138;24.742;2024-02-14T07:53:04;115.30;;;88.47;;
80227;SDS011;69539;42.138;24.742;2024-02-14T07:55:31;90.68;;;69.57;;
80227;SDS011;69539;42.138;24.742;2024-02-14T07:57:56;86.28;;;67.57;;
80227;SDS011;69539;42.138;24.742;2024-02-14T08:00:24;64.80;;;50.03;;
80227;SDS011;69539;42.138;24.742;2024-02-14T08:02:50;43.42;;;33.55;;
80227;SDS011;69539;42.138;24.742;2024-02-14T08:05:16;56.83;;;43.38;;
80227;SDS011;69539;42.138;24.742;2024-02-14T08:07:41;48.15;;;38.70;;
80227;SDS011;69539;42.138;24.742;2024-02-14T08:10:08;43.90;;;35.92;;
80227;SDS011;69539;42.138;24.742;2024-02-14T08:12:34;31.10;;;25.98;;
80227;SDS011;69539;42.138;24.742;2024-02-14T08:14:59;39.92;;;30.30;;
80227;SDS011;69539;42.138;24.742;2024-02-14T08:17:29;35.67;;;29.05;;
80227;SDS011;69539;42.138;24.742;2024-02-14T08:19:55;32.53;;;24.63;;
80227;SDS011;69539;42.138;24.742;2024-02-14T08:22:20;22.80;;;18.58;;
80227;SDS011;69539;42.138;24.742;2024-02-14T08:24:46;26.02;;;20.00;;
80227;SDS011;69539;42.138;24.742;2024-02-14T08:27:12;26.25;;;21.08;;
80227;SDS011;69539;42.138;24.742;2024-02-14T08:29:37;21.02;;;16.20;;
80227;SDS011;69539;42.138;24.742;2024-02-14T08:32:03;19.25;;;15.75;;
80227;SDS011;69539;42.138;24.742;2024-02-14T08:34:30;18.98;;;16.52;;
80227;SDS011;69539;42.138;24.742;2024-02-14T08:36:55;18.55;;;14.65;;
80227;SDS011;69539;42.138;24.742;2024-02-14T08:39:21;18.90;;;14.40;;
80227;SDS011;69539;42.138;24.742;2024-02-14T08:41:47;16.80;;;12.82;;
80227;SDS011;69539;42.138;24.742;2024-02-14T08:44:13;16.27;;;13.68;;
80227;SDS011;69539;42.138;24.742;2024-02-14T08:46:38;16.67;;;12.02;;
80227;SDS011;69539;42.138;24.742;2024-02-14T08:51:36;15.13;;;10.93;;
80227;SDS011;69539;42.138;24.742;2024-02-14T08:54:03;13.65;;;10.85;;
80227;SDS011;69539;42.138;24.742;2024-02-14T08:59:02;14.18;;;11.27;;
80227;SDS011;69539;42.138;24.742;2024-02-14T09:01:29;12.52;;;10.30;;
80227;SDS011;69539;42.138;24.742;2024-02-14T09:03:55;14.82;;;9.95;;
80227;SDS011;69539;42.138;24.742;2024-02-14T09:06:21;10.88;;;9.00;;
80227;SDS011;69539;42.138;24.742;2024-02-14T09:08:47;12.52;;;9.65;;
80227;SDS011;69539;42.138;24.742;2024-02-14T09:11:15;11.95;;;9.07;;
80227;SDS011;69539;42.138;24.742;2024-02-14T09:13:41;12.02;;;9.88;;
80227;SDS011;69539;42.138;24.742;2024-02-14T09:16:10;197.93;;;137.70;;
80227;SDS011;69539;42.138;24.742;2024-02-14T09:18:36;232.50;;;151.60;;
80227;SDS011;69539;42.138;24.742;2024-02-14T09:21:02;305.00;;;207.27;;
80227;SDS011;69539;42.138;24.742;2024-02-14T09:23:31;274.85;;;188.82;;
80227;SDS011;69539;42.138;24.742;2024-02-14T09:25:57;111.50;;;82.10;;
80227;SDS011;69539;42.138;24.742;2024-02-14T09:28:23;137.52;;;92.35;;
80227;SDS011;69539;42.138;24.742;2024-02-14T09:30:50;97.15;;;70.18;;
80227;SDS011;69539;42.138;24.742;2024-02-14T09:33:16;117.63;;;85.18;;
80227;SDS011;69539;42.138;24.742;2024-02-14T09:35:41;106.07;;;74.05;;
80227;SDS011;69539;42.138;24.742;2024-02-14T09:38:11;83.40;;;60.78;;
80227;SDS011;69539;42.138;24.742;2024-02-14T09:40:42;76.97;;;58.28;;
80227;SDS011;69539;42.138;24.742;2024-02-14T09:43:15;66.05;;;49.40;;
80227;SDS011;69539;42.138;24.742;2024-02-14T09:46:03;34.67;;;26.50;;
80227;SDS011;69539;42.138;24.742;2024-02-14T09:48:29;52.60;;;41.70;;
80227;SDS011;69539;42.138;24.742;2024-02-14T09:50:56;53.03;;;40.67;;
80227;SDS011;69539;42.138;24.742;2024-02-14T09:53:22;39.67;;;32.40;;
80227;SDS011;69539;42.138;24.742;2024-02-14T09:55:48;38.55;;;31.13;;
80227;SDS011;69539;42.138;24.742;2024-02-14T09:58:15;31.25;;;25.02;;
80227;SDS011;69539;42.138;24.742;2024-02-14T10:00:41;27.50;;;20.80;;
80227;SDS011;69539;42.138;24.742;2024-02-14T10:03:07;27.77;;;23.00;;
80227;SDS011;69539;42.138;24.742;2024-02-14T10:05:33;18.77;;;15.73;;
80227;SDS011;69539;42.138;24.742;2024-02-14T10:07:59;21.75;;;17.55;;
80227;SDS011;69539;42.138;24.742;2024-02-14T10:10:26;20.40;;;16.17;;
80227;SDS011;69539;42.138;24.742;2024-02-14T10:12:54;15.40;;;13.25;;
80227;SDS011;69539;42.138;24.742;2024-02-14T10:15:20;14.57;;;10.97;;
80227;SDS011;69539;42.138;24.742;2024-02-14T10:17:46;11.63;;;10.18;;
80227;SDS011;69539;42.138;24.742;2024-02-14T10:20:16;14.52;;;12.18;;
80227;SDS011;69539;42.138;24.742;2024-02-14T10:22:42;13.18;;;10.02;;
80227;SDS011;69539;42.138;24.742;2024-02-14T10:25:09;11.23;;;9.85;;
80227;SDS011;69539;42.138;24.742;2024-02-14T10:27:36;14.07;;;11.80;;
80227;SDS011;69539;42.138;24.742;2024-02-14T10:30:06;11.82;;;9.82;;
80227;SDS011;69539;42.138;24.742;2024-02-14T10:32:34;12.80;;;10.10;;
80227;SDS011;69539;42.138;24.742;2024-02-14T10:35:02;14.02;;;12.38;;
80227;SDS011;69539;42.138;24.742;2024-02-14T10:37:30;433.45;;;314.65;;
80227;SDS011;69539;42.138;24.742;2024-02-14T10:39:56;573.72;;;443.73;;
80227;SDS011;69539;42.138;24.742;2024-02-14T10:42:27;539.42;;;409.13;;
80227;SDS011;69539;42.138;24.742;2024-02-14T10:44:53;594.20;;;466.25;;
80227;SDS011;69539;42.138;24.742;2024-02-14T10:47:20;508.85;;;392.35;;
80227;SDS011;69539;42.138;24.742;2024-02-14T10:49:49;428.70;;;306.15;;
80227;SDS011;69539;42.138;24.742;2024-02-14T10:52:17;364.27;;;258.73;;
80227;SDS011;69539;42.138;24.742;2024-02-14T10:54:47;248.23;;;177.35;;
80227;SDS011;69539;42.138;24.742;2024-02-14T10:57:21;149.32;;;107.90;;
80227;SDS011;69539;42.138;24.742;2024-02-14T10:59:53;123.10;;;91.40;;
80227;SDS011;69539;42.138;24.742;2024-02-14T11:02:19;157.48;;;116.03;;
80227;SDS011;69539;42.138;24.742;2024-02-14T11:04:46;313.33;;;213.15;;
80227;SDS011;69539;42.138;24.742;2024-02-14T11:07:12;341.00;;;235.90;;
80227;SDS011;69539;42.138;24.742;2024-02-14T11:09:40;183.70;;;126.22;;
80227;SDS011;69539;42.138;24.742;2024-02-14T11:12:06;121.97;;;87.72;;
80227;SDS011;69539;42.138;24.742;2024-02-14T11:14:35;90.03;;;64.57;;
80227;SDS011;69539;42.138;24.742;2024-02-14T11:17:02;78.70;;;57.67;;
80227;SDS011;69539;42.138;24.742;2024-02-14T11:19:31;56.58;;;43.95;;
80227;SDS011;69539;42.138;24.742;2024-02-14T11:21:58;40.88;;;33.20;;
80227;SDS011;69539;42.138;24.742;2024-02-14T11:24:34;30.52;;;24.10;;
80227;SDS011;69539;42.138;24.742;2024-02-14T11:27:02;29.80;;;22.90;;
80227;SDS011;69539;42.138;24.742;2024-02-14T11:29:31;22.90;;;18.30;;
80227;SDS011;69539;42.138;24.742;2024-02-14T11:31:57;534.90;;;410.70;;
80227;SDS011;69539;42.138;24.742;2024-02-14T11:34:24;206.73;;;138.60;;
80227;SDS011;69539;42.138;24.742;2024-02-14T11:36:51;125.53;;;87.47;;
80227;SDS011;69539;42.138;24.742;2024-02-14T11:39:17;107.18;;;79.38;;
80227;SDS011;69539;42.138;24.742;2024-02-14T11:41:42;90.82;;;68.20;;
80227;SDS011;69539;42.138;24.742;2024-02-14T11:44:08;63.58;;;46.80;;
80227;SDS011;69539;42.138;24.742;2024-02-14T11:46:35;48.55;;;38.92;;
80227;SDS011;69539;42.138;24.742;2024-02-14T11:49:02;39.90;;;30.60;;
80227;SDS011;69539;42.138;24.742;2024-02-14T11:51:29;27.70;;;21.85;;
80227;SDS011;69539;42.138;24.742;2024-02-14T11:53:57;21.65;;;17.63;;
80227;SDS011;69539;42.138;24.742;2024-02-14T11:56:33;21.88;;;15.50;;
80227;SDS011;69539;42.138;24.742;2024-02-14T11:59:03;18.88;;;14.60;;
80227;SDS011;69539;42.138;24.742;2024-02-14T12:01:30;13.18;;;10.82;;
80227;SDS011;69539;42.138;24.742;2024-02-14T12:03:59;13.80;;;11.38;;
80227;SDS011;69539;42.138;24.742;2024-02-14T12:06:33;16.40;;;10.90;;
80227;SDS011;69539;42.138;24.742;2024-02-14T12:09:03;13.65;;;10.10;;
80227;SDS011;69539;42.138;24.742;2024-02-14T12:11:37;10.40;;;8.07;;
80227;SDS011;69539;42.138;24.742;2024-02-14T12:14:07;11.40;;;8.60;;
80227;SDS011;69539;42.138;24.742;2024-02-14T12:20:10;10.10;;;7.68;;
80227;SDS011;69539;42.138;24.742;2024-02-14T12:23:27;9.70;;;7.35;;
80227;SDS011;69539;42.138;24.742;2024-02-14T12:25:52;8.77;;;7.00;;
80227;SDS011;69539;42.138;24.742;2024-02-14T12:28:19;9.82;;;7.85;;
80227;SDS011;69539;42.138;24.742;2024-02-14T12:30:49;9.50;;;6.57;;
80227;SDS011;69539;42.138;24.742;2024-02-14T12:33:22;9.07;;;6.80;;
80227;SDS011;69539;42.138;24.742;2024-02-14T12:35:52;10.63;;;6.82;;
80227;SDS011;69539;42.138;24.742;2024-02-14T12:38:19;10.70;;;7.60;;
80227;SDS011;69539;42.138;24.742;2024-02-14T12:40:46;10.40;;;7.47;;
80227;SDS011;69539;42.138;24.742;2024-02-14T12:43:12;8.38;;;7.10;;
80227;SDS011;69539;42.138;24.742;2024-02-14T12:45:39;10.38;;;7.15;;
80227;SDS011;69539;42.138;24.742;2024-02-14T12:48:09;10.60;;;7.13;;
80227;SDS011;69539;42.138;24.742;2024-02-14T12:50:37;15.07;;;7.57;;
80227;SDS011;69539;42.138;24.742;2024-02-14T12:53:06;7.43;;;6.72;;
80227;SDS011;69539;42.138;24.742;2024-02-14T12:55:32;8.57;;;6.47;;
80227;SDS011;69539;42.138;24.742;2024-02-14T12:57:59;8.85;;;7.35;;
80227;SDS011;69539;42.138;24.742;2024-02-14T13:00:25;11.02;;;7.57;;
80227;SDS011;69539;42.138;24.742;2024-02-14T13:02:51;9.73;;;7.78;;
80227;SDS011;69539;42.138;24.742;2024-02-14T13:05:18;9.35;;;7.40;;
80227;SDS011;69539;42.138;24.742;2024-02-14T13:07:44;10.52;;;7.45;;
80227;SDS011;69539;42.138;24.742;2024-02-14T13:10:11;9.05;;;7.30;;
80227;SDS011;69539;42.138;24.742;2024-02-14T13:12:37;8.35;;;7.07;;
80227;SDS011;69539;42.138;24.742;2024-02-14T13:15:04;8.20;;;7.00;;
80227;SDS011;69539;42.138;24.742;2024-02-14T13:17:30;8.80;;;7.38;;
80227;SDS011;69539;42.138;24.742;2024-02-14T13:19:56;7.53;;;5.88;;
80227;SDS011;69539;42.138;24.742;2024-02-14T13:22:24;10.02;;;6.18;;
80227;SDS011;69539;42.138;24.742;2024-02-14T13:24:50;10.15;;;6.10;;
80227;SDS011;69539;42.138;24.742;2024-02-14T13:27:16;9.63;;;6.68;;
80227;SDS011;69539;42.138;24.742;2024-02-14T13:29:42;7.57;;;5.97;;
80227;SDS011;69539;42.138;24.742;2024-02-14T13:32:08;9.60;;;6.20;;
80227;SDS011;69539;42.138;24.742;2024-02-14T13:34:34;7.35;;;5.78;;
80227;SDS011;69539;42.138;24.742;2024-02-14T13:37:00;7.82;;;6.20;;
80227;SDS011;69539;42.138;24.742;2024-02-14T13:39:27;8.18;;;6.15;;
80227;SDS011;69539;42.138;24.742;2024-02-14T13:41:53;8.45;;;5.70;;
80227;SDS011;69539;42.138;24.742;2024-02-14T13:44:20;7.68;;;6.50;;
80227;SDS011;69539;42.138;24.742;2024-02-14T13:46:45;10.27;;;6.35;;
80227;SDS011;69539;42.138;24.742;2024-02-14T13:49:11;7.97;;;5.90;;
80227;SDS011;69539;42.138;24.742;2024-02-14T13:51:41;8.82;;;5.90;;
80227;SDS011;69539;42.138;24.742;2024-02-14T13:54:06;7.22;;;6.22;;
80227;SDS011;69539;42.138;24.742;2024-02-14T13:56:34;7.40;;;6.10;;
80227;SDS011;69539;42.138;24.742;2024-02-14T13:58:59;8.57;;;6.30;;
80227;SDS011;69539;42.138;24.742;2024-02-14T14:01:25;10.38;;;5.93;;
80227;SDS011;69539;42.138;24.742;2024-02-14T14:03:51;10.43;;;6.45;;
80227;SDS011;69539;42.138;24.742;2024-02-14T14:06:19;6.30;;;5.65;;
80227;SDS011;69539;42.138;24.742;2024-02-14T14:08:45;9.20;;;6.22;;
80227;SDS011;69539;42.138;24.742;2024-02-14T14:11:11;8.43;;;6.00;;
80227;SDS011;69539;42.138;24.742;2024-02-14T14:13:37;9.48;;;6.22;;
80227;SDS011;69539;42.138;24.742;2024-02-14T14:16:03;7.85;;;6.05;;
80227;SDS011;69539;42.138;24.742;2024-02-14T14:18:30;9.95;;;5.70;;
80227;SDS011;69539;42.138;24.742;2024-02-14T14:20:56;8.98;;;5.75;;
80227;SDS011;69539;42.138;24.742;2024-02-14T14:23:23;8.63;;;5.93;;
80227;SDS011;69539;42.138;24.742;2024-02-14T14:25:48;7.28;;;5.43;;
80227;SDS011;69539;42.138;24.742;2024-02-14T14:28:14;7.10;;;5.00;;